sensor_id;sensor_type;location;lat;lon;timestamp;P1;durP1;ratioP1;P2;durP2;ratioP2
9449;SDS011;4763;48.370;10.874;2023-05-10T00:01:25;1.60;;;1.30;;
9449;SDS011;4763;48.370;10.874;2023-05-10T00:04:12;2.47;;;1.60;;
9449;SDS011;4763;48.370;10.874;2023-05-10T00:06:59;1.27;;;1.17;;
9449;SDS011;4763;48.370;10.874;2023-05-10T00:09:48;3.00;;;1.90;;
9449;SDS011;4763;48.370;10.874;2023-05-10T00:12:35;1.30;;;1.20;;
9449;SDS011;4763;48.370;10.874;2023-05-10T00:15:22;1.43;;;1.30;;
9449;SDS011;4763;48.370;10.874;2023-05-10T00:18:09;2.30;;;1.00;;
9449;SDS011;4763;48.370;10.874;2023-05-10T00:20:56;2.43;;;1.40;;
9449;SDS011;4763;48.370;10.874;2023-05-10T00:23:43;1.03;;;0.93;;
9449;SDS011;4763;48.370;10.874;2023-05-10T00:26:31;1.33;;;1.13;;
9449;SDS011;4763;48.370;10.874;2023-05-10T00:29:18;1.63;;;1.20;;
9449;SDS011;4763;48.370;10.874;2023-05-10T00:32:05;1.40;;;1.20;;
9449;SDS011;4763;48.370;10.874;2023-05-10T00:34:53;1.93;;;1.30;;
9449;SDS011;4763;48.370;10.874;2023-05-10T00:37:40;4.50;;;1.20;;
9449;SDS011;4763;48.370;10.874;2023-05-10T00:40:27;1.20;;;1.10;;
9449;SDS011;4763;48.370;10.874;2023-05-10T00:43:17;3.40;;;1.13;;
9449;SDS011;4763;48.370;10.874;2023-05-10T00:46:04;0.90;;;0.90;;
9449;SDS011;4763;48.370;10.874;2023-05-10T00:48:51;1.10;;;1.00;;
9449;SDS011;4763;48.370;10.874;2023-05-10T00:51:38;1.10;;;1.00;;
9449;SDS011;4763;48.370;10.874;2023-05-10T00:54:28;1.20;;;1.10;;
9449;SDS011;4763;48.370;10.874;2023-05-10T00:57:15;1.50;;;1.00;;
9449;SDS011;4763;48.370;10.874;2023-05-10T01:00:04;1.73;;;1.00;;
9449;SDS011;4763;48.370;10.874;2023-05-10T01:02:53;1.10;;;1.00;;
9449;SDS011;4763;48.370;10.874;2023-05-10T01:05:40;1.00;;;0.90;;
9449;SDS011;4763;48.370;10.874;2023-05-10T01:08:27;1.20;;;1.07;;
9449;SDS011;4763;48.370;10.874;2023-05-10T01:11:14;0.93;;;0.93;;
9449;SDS011;4763;48.370;10.874;2023-05-10T01:14:01;2.10;;;1.00;;
9449;SDS011;4763;48.370;10.874;2023-05-10T01:16:50;0.93;;;0.83;;
9449;SDS011;4763;48.370;10.874;2023-05-10T01:19:39;1.30;;;1.03;;
9449;SDS011;4763;48.370;10.874;2023-05-10T01:29:14;0.90;;;0.90;;
9449;SDS011;4763;48.370;10.874;2023-05-10T01:32:22;0.77;;;0.77;;
9449;SDS011;4763;48.370;10.874;2023-05-10T01:35:16;0.90;;;0.90;;
9449;SDS011;4763;48.370;10.874;2023-05-10T01:38:09;1.20;;;1.10;;
9449;SDS011;4763;48.370;10.874;2023-05-10T01:41:07;0.90;;;0.90;;
9449;SDS011;4763;48.370;10.874;2023-05-10T01:44:02;1.50;;;1.10;;
9449;SDS011;4763;48.370;10.874;2023-05-10T01:46:57;1.13;;;0.80;;
9449;SDS011;4763;48.370;10.874;2023-05-10T01:49:53;1.90;;;0.93;;
9449;SDS011;4763;48.370;10.874;2023-05-10T01:52:42;0.70;;;0.70;;
9449;SDS011;4763;48.370;10.874;2023-05-10T01:55:32;1.00;;;0.90;;
9449;SDS011;4763;48.370;10.874;2023-05-10T01:58:22;1.47;;;0.90;;
9449;SDS011;4763;48.370;10.874;2023-05-10T02:01:14;1.80;;;1.10;;
9449;SDS011;4763;48.370;10.874;2023-05-10T02:04:02;0.80;;;0.80;;
9449;SDS011;4763;48.370;10.874;2023-05-10T02:06:52;1.03;;;0.93;;
9449;SDS011;4763;48.370;10.874;2023-05-10T02:09:40;0.63;;;0.63;;
9449;SDS011;4763;48.370;10.874;2023-05-10T02:12:33;1.23;;;0.77;;
9449;SDS011;4763;48.370;10.874;2023-05-10T02:15:22;2.70;;;0.90;;
9449;SDS011;4763;48.370;10.874;2023-05-10T02:18:11;0.70;;;0.70;;
9449;SDS011;4763;48.370;10.874;2023-05-10T02:20:59;0.60;;;0.60;;
9449;SDS011;4763;48.370;10.874;2023-05-10T02:23:48;0.67;;;0.67;;
9449;SDS011;4763;48.370;10.874;2023-05-10T02:26:38;2.30;;;1.00;;
9449;SDS011;4763;48.370;10.874;2023-05-10T02:29:25;0.73;;;0.70;;
9449;SDS011;4763;48.370;10.874;2023-05-10T02:32:14;2.40;;;0.80;;
9449;SDS011;4763;48.370;10.874;2023-05-10T02:35:03;0.90;;;0.90;;
9449;SDS011;4763;48.370;10.874;2023-05-10T02:37:51;0.60;;;0.60;;
9449;SDS011;4763;48.370;10.874;2023-05-10T02:40:41;0.60;;;0.60;;
9449;SDS011;4763;48.370;10.874;2023-05-10T02:43:29;0.93;;;0.70;;
9449;SDS011;4763;48.370;10.874;2023-05-10T02:46:18;0.60;;;0.60;;
9449;SDS011;4763;48.370;10.874;2023-05-10T02:49:05;0.70;;;0.67;;
9449;SDS011;4763;48.370;10.874;2023-05-10T02:51:55;0.50;;;0.50;;
9449;SDS011;4763;48.370;10.874;2023-05-10T02:54:48;0.70;;;0.70;;
9449;SDS011;4763;48.370;10.874;2023-05-10T02:57:38;1.10;;;0.70;;
9449;SDS011;4763;48.370;10.874;2023-05-10T03:00:28;0.60;;;0.60;;
9449;SDS011;4763;48.370;10.874;2023-05-10T03:03:15;0.73;;;0.73;;
9449;SDS011;4763;48.370;10.874;2023-05-10T03:06:03;0.73;;;0.73;;
9449;SDS011;4763;48.370;10.874;2023-05-10T03:08:50;1.23;;;0.43;;
9449;SDS011;4763;48.370;10.874;2023-05-10T03:11:39;0.77;;;0.57;;
9449;SDS011;4763;48.370;10.874;2023-05-10T03:14:42;0.60;;;0.60;;
9449;SDS011;4763;48.370;10.874;2023-05-10T03:17:45;0.50;;;0.50;;
9449;SDS011;4763;48.370;10.874;2023-05-10T03:20:35;0.60;;;0.50;;
9449;SDS011;4763;48.370;10.874;2023-05-10T03:23:29;0.60;;;0.60;;
9449;SDS011;4763;48.370;10.874;2023-05-10T03:26:20;2.07;;;0.57;;
9449;SDS011;4763;48.370;10.874;2023-05-10T03:29:12;0.50;;;0.50;;
9449;SDS011;4763;48.370;10.874;2023-05-10T03:32:01;0.43;;;0.43;;
9449;SDS011;4763;48.370;10.874;2023-05-10T03:34:48;0.60;;;0.60;;
9449;SDS011;4763;48.370;10.874;2023-05-10T03:37:35;0.50;;;0.50;;
9449;SDS011;4763;48.370;10.874;2023-05-10T03:40:23;0.60;;;0.50;;
9449;SDS011;4763;48.370;10.874;2023-05-10T03:43:10;0.33;;;0.33;;
9449;SDS011;4763;48.370;10.874;2023-05-10T03:45:57;0.50;;;0.50;;
9449;SDS011;4763;48.370;10.874;2023-05-10T03:48:45;0.50;;;0.50;;
9449;SDS011;4763;48.370;10.874;2023-05-10T03:51:32;3.27;;;0.50;;
9449;SDS011;4763;48.370;10.874;2023-05-10T03:54:19;0.40;;;0.40;;
9449;SDS011;4763;48.370;10.874;2023-05-10T03:57:06;0.50;;;0.50;;
9449;SDS011;4763;48.370;10.874;2023-05-10T03:59:54;0.37;;;0.20;;
9449;SDS011;4763;48.370;10.874;2023-05-10T04:02:41;2.20;;;0.40;;
9449;SDS011;4763;48.370;10.874;2023-05-10T04:05:30;0.33;;;0.33;;
9449;SDS011;4763;48.370;10.874;2023-05-10T04:08:17;0.10;;;0.10;;
9449;SDS011;4763;48.370;10.874;2023-05-10T04:11:04;0.30;;;0.30;;
9449;SDS011;4763;48.370;10.874;2023-05-10T04:13:52;0.53;;;0.43;;
9449;SDS011;4763;48.370;10.874;2023-05-10T04:16:39;0.30;;;0.30;;
9449;SDS011;4763;48.370;10.874;2023-05-10T04:19:28;0.40;;;0.40;;
9449;SDS011;4763;48.370;10.874;2023-05-10T04:22:17;1.00;;;0.40;;
9449;SDS011;4763;48.370;10.874;2023-05-10T04:25:05;0.40;;;0.40;;
9449;SDS011;4763;48.370;10.874;2023-05-10T04:27:52;1.53;;;0.60;;
9449;SDS011;4763;48.370;10.874;2023-05-10T04:30:39;0.63;;;0.40;;
9449;SDS011;4763;48.370;10.874;2023-05-10T04:33:26;1.00;;;0.50;;
9449;SDS011;4763;48.370;10.874;2023-05-10T04:36:13;0.47;;;0.47;;
9449;SDS011;4763;48.370;10.874;2023-05-10T04:39:02;0.50;;;0.50;;
9449;SDS011;4763;48.370;10.874;2023-05-10T04:41:49;1.17;;;0.60;;
9449;SDS011;4763;48.370;10.874;2023-05-10T04:44:36;0.37;;;0.30;;
9449;SDS011;4763;48.370;10.874;2023-05-10T04:47:24;0.60;;;0.60;;
9449;SDS011;4763;48.370;10.874;2023-05-10T04:50:11;0.47;;;0.47;;
9449;SDS011;4763;48.370;10.874;2023-05-10T04:52:58;0.40;;;0.40;;
9449;SDS011;4763;48.370;10.874;2023-05-10T04:55:47;0.40;;;0.40;;
9449;SDS011;4763;48.370;10.874;2023-05-10T04:58:34;0.57;;;0.57;;
9449;SDS011;4763;48.370;10.874;2023-05-10T05:01:21;1.53;;;0.60;;
9449;SDS011;4763;48.370;10.874;2023-05-10T05:04:08;0.90;;;0.53;;
9449;SDS011;4763;48.370;10.874;2023-05-10T05:06:55;0.70;;;0.63;;
9449;SDS011;4763;48.370;10.874;2023-05-10T05:09:42;0.70;;;0.70;;
9449;SDS011;4763;48.370;10.874;2023-05-10T05:12:30;0.80;;;0.60;;
9449;SDS011;4763;48.370;10.874;2023-05-10T05:15:17;0.93;;;0.70;;
9449;SDS011;4763;48.370;10.874;2023-05-10T05:18:04;1.93;;;0.70;;
9449;SDS011;4763;48.370;10.874;2023-05-10T05:20:51;0.83;;;0.57;;
9449;SDS011;4763;48.370;10.874;2023-05-10T05:23:38;1.60;;;0.73;;
9449;SDS011;4763;48.370;10.874;2023-05-10T05:26:26;1.60;;;0.83;;
9449;SDS011;4763;48.370;10.874;2023-05-10T05:29:14;0.77;;;0.57;;
9449;SDS011;4763;48.370;10.874;2023-05-10T05:32:01;2.37;;;0.80;;
9449;SDS011;4763;48.370;10.874;2023-05-10T05:34:48;0.60;;;0.47;;
9449;SDS011;4763;48.370;10.874;2023-05-10T05:37:36;0.97;;;0.73;;
9449;SDS011;4763;48.370;10.874;2023-05-10T05:40:23;1.40;;;0.60;;
9449;SDS011;4763;48.370;10.874;2023-05-10T05:43:10;0.57;;;0.57;;
9449;SDS011;4763;48.370;10.874;2023-05-10T05:45:58;1.40;;;0.73;;
9449;SDS011;4763;48.370;10.874;2023-05-10T05:48:45;0.70;;;0.60;;
9449;SDS011;4763;48.370;10.874;2023-05-10T05:51:33;0.50;;;0.50;;
9449;SDS011;4763;48.370;10.874;2023-05-10T05:54:20;0.70;;;0.70;;
9449;SDS011;4763;48.370;10.874;2023-05-10T05:57:08;0.70;;;0.67;;
9449;SDS011;4763;48.370;10.874;2023-05-10T05:59:55;0.50;;;0.50;;
9449;SDS011;4763;48.370;10.874;2023-05-10T06:02:43;0.93;;;0.83;;
9449;SDS011;4763;48.370;10.874;2023-05-10T06:05:30;0.63;;;0.63;;
9449;SDS011;4763;48.370;10.874;2023-05-10T06:08:17;0.70;;;0.70;;
9449;SDS011;4763;48.370;10.874;2023-05-10T06:11:05;1.20;;;0.63;;
9449;SDS011;4763;48.370;10.874;2023-05-10T06:13:52;2.10;;;0.90;;
9449;SDS011;4763;48.370;10.874;2023-05-10T06:16:39;1.17;;;1.00;;
9449;SDS011;4763;48.370;10.874;2023-05-10T06:19:28;1.33;;;1.00;;
9449;SDS011;4763;48.370;10.874;2023-05-10T06:22:15;1.83;;;0.93;;
9449;SDS011;4763;48.370;10.874;2023-05-10T06:25:02;0.60;;;0.60;;
9449;SDS011;4763;48.370;10.874;2023-05-10T06:27:49;1.03;;;0.80;;
9449;SDS011;4763;48.370;10.874;2023-05-10T06:30:40;0.83;;;0.80;;
9449;SDS011;4763;48.370;10.874;2023-05-10T06:33:28;1.13;;;1.03;;
9449;SDS011;4763;48.370;10.874;2023-05-10T06:36:17;0.87;;;0.77;;
9449;SDS011;4763;48.370;10.874;2023-05-10T06:39:04;0.83;;;0.83;;
9449;SDS011;4763;48.370;10.874;2023-05-10T06:41:51;2.13;;;0.80;;
9449;SDS011;4763;48.370;10.874;2023-05-10T06:44:37;0.87;;;0.77;;
9449;SDS011;4763;48.370;10.874;2023-05-10T06:47:25;0.90;;;0.90;;
9449;SDS011;4763;48.370;10.874;2023-05-10T06:50:12;1.20;;;1.00;;
9449;SDS011;4763;48.370;10.874;2023-05-10T06:53:00;2.00;;;0.90;;
9449;SDS011;4763;48.370;10.874;2023-05-10T06:55:48;0.83;;;0.60;;
9449;SDS011;4763;48.370;10.874;2023-05-10T06:58:36;1.10;;;1.00;;
9449;SDS011;4763;48.370;10.874;2023-05-10T07:01:23;2.23;;;1.07;;
9449;SDS011;4763;48.370;10.874;2023-05-10T07:04:10;0.80;;;0.70;;
9449;SDS011;4763;48.370;10.874;2023-05-10T07:06:58;1.37;;;0.80;;
9449;SDS011;4763;48.370;10.874;2023-05-10T07:09:46;1.57;;;0.80;;
9449;SDS011;4763;48.370;10.874;2023-05-10T07:12:35;1.10;;;0.93;;
9449;SDS011;4763;48.370;10.874;2023-05-10T07:15:22;1.17;;;1.00;;
9449;SDS011;4763;48.370;10.874;2023-05-10T07:18:09;1.10;;;0.70;;
9449;SDS011;4763;48.370;10.874;2023-05-10T07:20:56;1.87;;;0.97;;
9449;SDS011;4763;48.370;10.874;2023-05-10T07:23:43;0.77;;;0.77;;
9449;SDS011;4763;48.370;10.874;2023-05-10T07:26:32;0.97;;;0.80;;
9449;SDS011;4763;48.370;10.874;2023-05-10T07:29:19;1.80;;;0.97;;
9449;SDS011;4763;48.370;10.874;2023-05-10T07:32:06;1.50;;;1.17;;
9449;SDS011;4763;48.370;10.874;2023-05-10T07:34:53;0.97;;;0.70;;
9449;SDS011;4763;48.370;10.874;2023-05-10T07:37:40;1.57;;;0.70;;
9449;SDS011;4763;48.370;10.874;2023-05-10T07:40:28;0.93;;;0.87;;
9449;SDS011;4763;48.370;10.874;2023-05-10T07:43:17;1.10;;;1.00;;
9449;SDS011;4763;48.370;10.874;2023-05-10T07:46:04;3.20;;;0.83;;
9449;SDS011;4763;48.370;10.874;2023-05-10T07:48:51;2.73;;;0.80;;
9449;SDS011;4763;48.370;10.874;2023-05-10T07:51:38;0.80;;;0.80;;
9449;SDS011;4763;48.370;10.874;2023-05-10T07:54:25;4.00;;;0.83;;
9449;SDS011;4763;48.370;10.874;2023-05-10T07:57:12;0.87;;;0.70;;
9449;SDS011;4763;48.370;10.874;2023-05-10T08:00:04;0.70;;;0.60;;
9449;SDS011;4763;48.370;10.874;2023-05-10T08:02:52;0.80;;;0.80;;
9449;SDS011;4763;48.370;10.874;2023-05-10T08:05:39;0.50;;;0.50;;
9449;SDS011;4763;48.370;10.874;2023-05-10T08:08:26;1.40;;;0.83;;
9449;SDS011;4763;48.370;10.874;2023-05-10T08:11:13;0.63;;;0.63;;
9449;SDS011;4763;48.370;10.874;2023-05-10T08:14:00;0.60;;;0.60;;
9449;SDS011;4763;48.370;10.874;2023-05-10T08:16:48;2.70;;;1.10;;
9449;SDS011;4763;48.370;10.874;2023-05-10T08:19:35;0.70;;;0.70;;
9449;SDS011;4763;48.370;10.874;2023-05-10T08:22:22;1.70;;;0.60;;
9449;SDS011;4763;48.370;10.874;2023-05-10T08:25:09;0.80;;;0.80;;
9449;SDS011;4763;48.370;10.874;2023-05-10T08:27:56;1.10;;;1.00;;
9449;SDS011;4763;48.370;10.874;2023-05-10T08:30:43;1.50;;;0.90;;
9449;SDS011;4763;48.370;10.874;2023-05-10T08:33:32;2.00;;;0.57;;
9449;SDS011;4763;48.370;10.874;2023-05-10T08:36:19;0.93;;;0.70;;
9449;SDS011;4763;48.370;10.874;2023-05-10T08:39:09;1.33;;;0.73;;
9449;SDS011;4763;48.370;10.874;2023-05-10T08:41:58;0.67;;;0.67;;
9449;SDS011;4763;48.370;10.874;2023-05-10T08:44:50;1.63;;;0.60;;
9449;SDS011;4763;48.370;10.874;2023-05-10T08:47:39;6.20;;;0.83;;
9449;SDS011;4763;48.370;10.874;2023-05-10T08:50:28;1.23;;;0.70;;
9449;SDS011;4763;48.370;10.874;2023-05-10T08:53:16;0.63;;;0.63;;
9449;SDS011;4763;48.370;10.874;2023-05-10T08:56:05;1.10;;;0.67;;
9449;SDS011;4763;48.370;10.874;2023-05-10T08:58:53;0.60;;;0.60;;
9449;SDS011;4763;48.370;10.874;2023-05-10T09:01:40;0.80;;;0.80;;
9449;SDS011;4763;48.370;10.874;2023-05-10T09:04:29;0.80;;;0.80;;
9449;SDS011;4763;48.370;10.874;2023-05-10T09:07:18;1.30;;;0.80;;
9449;SDS011;4763;48.370;10.874;2023-05-10T09:10:06;1.60;;;0.83;;
9449;SDS011;4763;48.370;10.874;2023-05-10T09:12:55;1.93;;;0.80;;
9449;SDS011;4763;48.370;10.874;2023-05-10T09:15:43;1.43;;;0.87;;
9449;SDS011;4763;48.370;10.874;2023-05-10T09:18:30;0.97;;;0.80;;
9449;SDS011;4763;48.370;10.874;2023-05-10T09:21:18;2.33;;;0.90;;
9449;SDS011;4763;48.370;10.874;2023-05-10T09:24:07;1.03;;;0.80;;
9449;SDS011;4763;48.370;10.874;2023-05-10T09:26:56;0.87;;;0.83;;
9449;SDS011;4763;48.370;10.874;2023-05-10T09:29:44;1.57;;;0.80;;
9449;SDS011;4763;48.370;10.874;2023-05-10T09:32:37;0.70;;;0.70;;
9449;SDS011;4763;48.370;10.874;2023-05-10T09:35:27;1.50;;;0.80;;
9449;SDS011;4763;48.370;10.874;2023-05-10T09:38:15;1.23;;;0.90;;
9449;SDS011;4763;48.370;10.874;2023-05-10T09:41:14;1.00;;;0.90;;
9449;SDS011;4763;48.370;10.874;2023-05-10T09:44:02;1.53;;;0.87;;
9449;SDS011;4763;48.370;10.874;2023-05-10T09:46:50;1.73;;;0.87;;
9449;SDS011;4763;48.370;10.874;2023-05-10T09:49:38;1.80;;;1.03;;
9449;SDS011;4763;48.370;10.874;2023-05-10T09:52:25;1.00;;;0.90;;
9449;SDS011;4763;48.370;10.874;2023-05-10T09:55:12;2.83;;;1.30;;
9449;SDS011;4763;48.370;10.874;2023-05-10T09:58:01;2.60;;;1.00;;
9449;SDS011;4763;48.370;10.874;2023-05-10T10:00:49;1.23;;;1.13;;
9449;SDS011;4763;48.370;10.874;2023-05-10T10:03:40;1.63;;;1.20;;
9449;SDS011;4763;48.370;10.874;2023-05-10T10:06:28;1.60;;;1.17;;
9449;SDS011;4763;48.370;10.874;2023-05-10T10:09:15;1.07;;;0.83;;
9449;SDS011;4763;48.370;10.874;2023-05-10T10:12:04;0.97;;;0.80;;
9449;SDS011;4763;48.370;10.874;2023-05-10T10:14:52;1.20;;;0.70;;
9449;SDS011;4763;48.370;10.874;2023-05-10T10:17:41;1.07;;;0.90;;
9449;SDS011;4763;48.370;10.874;2023-05-10T10:20:29;1.70;;;0.80;;
9449;SDS011;4763;48.370;10.874;2023-05-10T10:23:16;0.93;;;0.77;;
9449;SDS011;4763;48.370;10.874;2023-05-10T10:26:03;5.93;;;1.10;;
9449;SDS011;4763;48.370;10.874;2023-05-10T10:28:51;2.77;;;1.10;;
9449;SDS011;4763;48.370;10.874;2023-05-10T10:31:51;1.30;;;1.20;;
9449;SDS011;4763;48.370;10.874;2023-05-10T10:34:43;1.33;;;1.10;;
9449;SDS011;4763;48.370;10.874;2023-05-10T10:37:44;4.63;;;1.33;;
9449;SDS011;4763;48.370;10.874;2023-05-10T10:40:32;1.30;;;1.00;;
9449;SDS011;4763;48.370;10.874;2023-05-10T10:43:20;2.63;;;0.90;;
9449;SDS011;4763;48.370;10.874;2023-05-10T10:46:10;1.90;;;0.93;;
9449;SDS011;4763;48.370;10.874;2023-05-10T10:49:09;0.87;;;0.83;;
9449;SDS011;4763;48.370;10.874;2023-05-10T10:55:07;1.10;;;0.97;;
9449;SDS011;4763;48.370;10.874;2023-05-10T10:57:56;1.43;;;0.63;;
9449;SDS011;4763;48.370;10.874;2023-05-10T11:00:47;1.23;;;1.10;;
9449;SDS011;4763;48.370;10.874;2023-05-10T11:03:34;1.13;;;0.70;;
9449;SDS011;4763;48.370;10.874;2023-05-10T11:06:29;0.97;;;0.70;;
9449;SDS011;4763;48.370;10.874;2023-05-10T11:09:17;1.27;;;0.80;;
9449;SDS011;4763;48.370;10.874;2023-05-10T11:12:07;1.23;;;1.03;;
9449;SDS011;4763;48.370;10.874;2023-05-10T11:14:56;1.10;;;0.97;;
9449;SDS011;4763;48.370;10.874;2023-05-10T11:17:44;0.60;;;0.60;;
9449;SDS011;4763;48.370;10.874;2023-05-10T11:20:38;1.40;;;0.93;;
9449;SDS011;4763;48.370;10.874;2023-05-10T11:23:30;3.20;;;1.10;;
9449;SDS011;4763;48.370;10.874;2023-05-10T11:26:18;0.77;;;0.70;;
9449;SDS011;4763;48.370;10.874;2023-05-10T11:29:08;2.63;;;0.90;;
9449;SDS011;4763;48.370;10.874;2023-05-10T11:31:56;0.87;;;0.87;;
9449;SDS011;4763;48.370;10.874;2023-05-10T11:34:46;0.80;;;0.80;;
9449;SDS011;4763;48.370;10.874;2023-05-10T11:37:34;1.27;;;1.07;;
9449;SDS011;4763;48.370;10.874;2023-05-10T11:40:22;1.33;;;1.13;;
9449;SDS011;4763;48.370;10.874;2023-05-10T11:43:10;3.37;;;0.90;;
9449;SDS011;4763;48.370;10.874;2023-05-10T11:45:57;1.60;;;0.57;;
9449;SDS011;4763;48.370;10.874;2023-05-10T11:48:45;0.80;;;0.80;;
9449;SDS011;4763;48.370;10.874;2023-05-10T11:51:35;2.40;;;1.00;;
9449;SDS011;4763;48.370;10.874;2023-05-10T11:54:24;1.80;;;1.07;;
9449;SDS011;4763;48.370;10.874;2023-05-10T11:57:12;1.20;;;1.00;;
9449;SDS011;4763;48.370;10.874;2023-05-10T12:00:00;0.77;;;0.73;;
9449;SDS011;4763;48.370;10.874;2023-05-10T12:02:49;1.00;;;0.90;;
9449;SDS011;4763;48.370;10.874;2023-05-10T12:05:36;1.10;;;0.60;;
9449;SDS011;4763;48.370;10.874;2023-05-10T12:08:24;1.03;;;0.90;;
9449;SDS011;4763;48.370;10.874;2023-05-10T12:11:13;1.63;;;0.70;;
9449;SDS011;4763;48.370;10.874;2023-05-10T12:14:03;1.47;;;1.00;;
9449;SDS011;4763;48.370;10.874;2023-05-10T12:16:52;3.77;;;0.80;;
9449;SDS011;4763;48.370;10.874;2023-05-10T12:19:39;1.37;;;0.63;;
9449;SDS011;4763;48.370;10.874;2023-05-10T12:22:26;1.83;;;1.00;;
9449;SDS011;4763;48.370;10.874;2023-05-10T12:25:13;1.03;;;0.93;;
9449;SDS011;4763;48.370;10.874;2023-05-10T12:28:02;2.40;;;1.03;;
9449;SDS011;4763;48.370;10.874;2023-05-10T12:30:52;2.13;;;1.00;;
9449;SDS011;4763;48.370;10.874;2023-05-10T12:33:40;1.37;;;0.80;;
9449;SDS011;4763;48.370;10.874;2023-05-10T12:36:28;3.60;;;1.03;;
9449;SDS011;4763;48.370;10.874;2023-05-10T12:39:16;2.17;;;0.80;;
9449;SDS011;4763;48.370;10.874;2023-05-10T12:42:04;0.90;;;0.80;;
9449;SDS011;4763;48.370;10.874;2023-05-10T12:44:54;0.73;;;0.57;;
9449;SDS011;4763;48.370;10.874;2023-05-10T12:47:43;1.37;;;0.60;;
9449;SDS011;4763;48.370;10.874;2023-05-10T12:50:30;0.60;;;0.40;;
9449;SDS011;4763;48.370;10.874;2023-05-10T12:53:17;0.43;;;0.43;;
9449;SDS011;4763;48.370;10.874;2023-05-10T12:56:04;2.83;;;0.80;;
9449;SDS011;4763;48.370;10.874;2023-05-10T12:58:52;0.63;;;0.63;;
9449;SDS011;4763;48.370;10.874;2023-05-10T13:01:39;1.47;;;0.60;;
9449;SDS011;4763;48.370;10.874;2023-05-10T13:04:27;0.83;;;0.70;;
9449;SDS011;4763;48.370;10.874;2023-05-10T13:07:14;0.87;;;0.60;;
9449;SDS011;4763;48.370;10.874;2023-05-10T13:10:01;3.80;;;0.67;;
9449;SDS011;4763;48.370;10.874;2023-05-10T13:12:48;0.60;;;0.60;;
9449;SDS011;4763;48.370;10.874;2023-05-10T13:15:35;3.80;;;1.00;;
9449;SDS011;4763;48.370;10.874;2023-05-10T13:18:22;2.57;;;0.97;;
9449;SDS011;4763;48.370;10.874;2023-05-10T13:21:12;6.63;;;0.93;;
9449;SDS011;4763;48.370;10.874;2023-05-10T13:24:00;0.83;;;0.60;;
9449;SDS011;4763;48.370;10.874;2023-05-10T13:26:47;0.87;;;0.57;;
9449;SDS011;4763;48.370;10.874;2023-05-10T13:29:34;3.90;;;0.77;;
9449;SDS011;4763;48.370;10.874;2023-05-10T13:32:21;1.90;;;0.63;;
9449;SDS011;4763;48.370;10.874;2023-05-10T13:35:09;1.20;;;1.10;;
9449;SDS011;4763;48.370;10.874;2023-05-10T13:37:57;1.23;;;0.70;;
9449;SDS011;4763;48.370;10.874;2023-05-10T13:40:44;2.07;;;0.57;;
9449;SDS011;4763;48.370;10.874;2023-05-10T13:43:31;2.10;;;0.70;;
9449;SDS011;4763;48.370;10.874;2023-05-10T13:46:18;5.63;;;1.00;;
9449;SDS011;4763;48.370;10.874;2023-05-10T13:49:05;0.77;;;0.77;;
9449;SDS011;4763;48.370;10.874;2023-05-10T13:51:52;1.03;;;0.90;;
9449;SDS011;4763;48.370;10.874;2023-05-10T13:54:40;3.23;;;0.70;;
9449;SDS011;4763;48.370;10.874;2023-05-10T13:57:28;1.33;;;0.60;;
9449;SDS011;4763;48.370;10.874;2023-05-10T14:00:15;3.13;;;0.60;;
9449;SDS011;4763;48.370;10.874;2023-05-10T14:03:03;0.87;;;0.73;;
9449;SDS011;4763;48.370;10.874;2023-05-10T14:05:51;1.47;;;0.60;;
9449;SDS011;4763;48.370;10.874;2023-05-10T14:08:38;1.00;;;0.80;;
9449;SDS011;4763;48.370;10.874;2023-05-10T14:11:27;0.83;;;0.50;;
9449;SDS011;4763;48.370;10.874;2023-05-10T14:14:14;1.07;;;0.70;;
9449;SDS011;4763;48.370;10.874;2023-05-10T14:17:01;1.07;;;0.70;;
9449;SDS011;4763;48.370;10.874;2023-05-10T14:19:48;0.83;;;0.50;;
9449;SDS011;4763;48.370;10.874;2023-05-10T14:22:35;1.60;;;0.80;;
9449;SDS011;4763;48.370;10.874;2023-05-10T14:25:22;0.60;;;0.60;;
9449;SDS011;4763;48.370;10.874;2023-05-10T14:28:11;0.70;;;0.70;;
9449;SDS011;4763;48.370;10.874;2023-05-10T14:30:58;1.70;;;0.90;;
9449;SDS011;4763;48.370;10.874;2023-05-10T14:33:45;0.80;;;0.70;;
9449;SDS011;4763;48.370;10.874;2023-05-10T14:36:33;2.87;;;0.80;;
9449;SDS011;4763;48.370;10.874;2023-05-10T14:39:20;2.10;;;0.70;;
9449;SDS011;4763;48.370;10.874;2023-05-10T14:42:08;0.77;;;0.70;;
9449;SDS011;4763;48.370;10.874;2023-05-10T14:44:56;0.63;;;0.63;;
9449;SDS011;4763;48.370;10.874;2023-05-10T14:47:43;1.00;;;0.80;;
9449;SDS011;4763;48.370;10.874;2023-05-10T14:50:30;0.77;;;0.70;;
9449;SDS011;4763;48.370;10.874;2023-05-10T14:53:17;0.97;;;0.93;;
9449;SDS011;4763;48.370;10.874;2023-05-10T14:56:04;3.63;;;0.83;;
9449;SDS011;4763;48.370;10.874;2023-05-10T14:58:52;1.23;;;0.90;;
9449;SDS011;4763;48.370;10.874;2023-05-10T15:01:40;2.00;;;1.03;;
9449;SDS011;4763;48.370;10.874;2023-05-10T15:04:28;1.90;;;1.30;;
9449;SDS011;4763;48.370;10.874;2023-05-10T15:07:15;0.90;;;0.63;;
9449;SDS011;4763;48.370;10.874;2023-05-10T15:10:04;1.00;;;0.90;;
9449;SDS011;4763;48.370;10.874;2023-05-10T15:12:51;1.67;;;1.00;;
9449;SDS011;4763;48.370;10.874;2023-05-10T15:15:38;1.07;;;0.97;;
9449;SDS011;4763;48.370;10.874;2023-05-10T15:18:27;0.80;;;0.80;;
9449;SDS011;4763;48.370;10.874;2023-05-10T15:21:14;0.73;;;0.73;;
9449;SDS011;4763;48.370;10.874;2023-05-10T15:24:01;0.80;;;0.70;;
9449;SDS011;4763;48.370;10.874;2023-05-10T15:26:48;0.67;;;0.67;;
9449;SDS011;4763;48.370;10.874;2023-05-10T15:29:35;1.03;;;0.87;;
9449;SDS011;4763;48.370;10.874;2023-05-10T15:32:22;1.63;;;1.13;;
9449;SDS011;4763;48.370;10.874;2023-05-10T15:35:10;2.43;;;1.53;;
9449;SDS011;4763;48.370;10.874;2023-05-10T15:37:57;0.90;;;0.87;;
9449;SDS011;4763;48.370;10.874;2023-05-10T15:40:44;0.70;;;0.70;;
9449;SDS011;4763;48.370;10.874;2023-05-10T15:43:31;1.80;;;0.90;;
9449;SDS011;4763;48.370;10.874;2023-05-10T15:46:19;1.20;;;1.10;;
9449;SDS011;4763;48.370;10.874;2023-05-10T15:49:06;1.67;;;1.20;;
9449;SDS011;4763;48.370;10.874;2023-05-10T15:51:54;1.27;;;1.03;;
9449;SDS011;4763;48.370;10.874;2023-05-10T15:54:41;1.00;;;0.90;;
9449;SDS011;4763;48.370;10.874;2023-05-10T15:57:28;1.30;;;1.00;;
9449;SDS011;4763;48.370;10.874;2023-05-10T16:00:15;6.23;;;4.03;;
9449;SDS011;4763;48.370;10.874;2023-05-10T16:03:03;2.27;;;1.70;;
9449;SDS011;4763;48.370;10.874;2023-05-10T16:05:50;5.77;;;3.17;;
9449;SDS011;4763;48.370;10.874;2023-05-10T16:08:39;6.17;;;5.57;;
9449;SDS011;4763;48.370;10.874;2023-05-10T16:11:26;3.97;;;2.73;;
9449;SDS011;4763;48.370;10.874;2023-05-10T16:14:13;9.30;;;7.17;;
9449;SDS011;4763;48.370;10.874;2023-05-10T16:17:00;2.77;;;2.20;;
9449;SDS011;4763;48.370;10.874;2023-05-10T16:19:48;3.50;;;3.00;;
9449;SDS011;4763;48.370;10.874;2023-05-10T16:22:35;2.00;;;1.80;;
9449;SDS011;4763;48.370;10.874;2023-05-10T16:25:24;3.90;;;3.50;;
9449;SDS011;4763;48.370;10.874;2023-05-10T16:28:11;2.23;;;1.70;;
9449;SDS011;4763;48.370;10.874;2023-05-10T16:30:58;3.47;;;2.60;;
9449;SDS011;4763;48.370;10.874;2023-05-10T16:33:45;2.63;;;2.20;;
9449;SDS011;4763;48.370;10.874;2023-05-10T16:36:32;6.27;;;2.23;;
9449;SDS011;4763;48.370;10.874;2023-05-10T16:39:19;2.77;;;2.00;;
9449;SDS011;4763;48.370;10.874;2023-05-10T16:42:08;2.30;;;2.00;;
9449;SDS011;4763;48.370;10.874;2023-05-10T16:44:55;3.43;;;2.20;;
9449;SDS011;4763;48.370;10.874;2023-05-10T16:47:42;4.03;;;2.60;;
9449;SDS011;4763;48.370;10.874;2023-05-10T16:50:29;2.17;;;1.97;;
9449;SDS011;4763;48.370;10.874;2023-05-10T16:53:16;2.40;;;1.80;;
9449;SDS011;4763;48.370;10.874;2023-05-10T16:56:03;2.47;;;1.80;;
9449;SDS011;4763;48.370;10.874;2023-05-10T16:58:52;3.40;;;1.97;;
9449;SDS011;4763;48.370;10.874;2023-05-10T17:01:39;1.80;;;1.70;;
9449;SDS011;4763;48.370;10.874;2023-05-10T17:04:26;3.43;;;2.00;;
9449;SDS011;4763;48.370;10.874;2023-05-10T17:07:13;3.30;;;1.70;;
9449;SDS011;4763;48.370;10.874;2023-05-10T17:10:00;4.10;;;1.83;;
9449;SDS011;4763;48.370;10.874;2023-05-10T17:12:47;2.30;;;1.37;;
9449;SDS011;4763;48.370;10.874;2023-05-10T17:15:36;1.50;;;1.30;;
9449;SDS011;4763;48.370;10.874;2023-05-10T17:18:23;1.47;;;1.30;;